sensor_id;sensor_type;location;lat;lon;timestamp;P1;durP1;ratioP1;P2;durP2;ratioP2
36373;SDS011;22399;51.346;12.372;2023-06-14T00:00:05;1.30;;;0.98;;
36373;SDS011;22399;51.346;12.372;2023-06-14T00:02:35;5.00;;;1.70;;
36373;SDS011;22399;51.346;12.372;2023-06-14T00:05:04;20.02;;;1.73;;
36373;SDS011;22399;51.346;12.372;2023-06-14T00:07:34;3.80;;;1.73;;
36373;SDS011;22399;51.346;12.372;2023-06-14T00:10:05;5.20;;;1.23;;
36373;SDS011;22399;51.346;12.372;2023-06-14T00:12:34;2.72;;;1.10;;
36373;SDS011;22399;51.346;12.372;2023-06-14T00:15:04;4.22;;;1.63;;
36373;SDS011;22399;51.346;12.372;2023-06-14T00:17:33;2.47;;;1.42;;
36373;SDS011;22399;51.346;12.372;2023-06-14T00:20:03;2.15;;;1.35;;
36373;SDS011;22399;51.346;12.372;2023-06-14T00:22:36;2.45;;;1.52;;
36373;SDS011;22399;51.346;12.372;2023-06-14T00:25:06;2.17;;;1.02;;
36373;SDS011;22399;51.346;12.372;2023-06-14T00:27:54;7.57;;;1.55;;
36373;SDS011;22399;51.346;12.372;2023-06-14T00:30:23;8.40;;;1.52;;
36373;SDS011;22399;51.346;12.372;2023-06-14T00:32:52;2.05;;;1.48;;
36373;SDS011;22399;51.346;12.372;2023-06-14T00:35:20;4.60;;;1.60;;
36373;SDS011;22399;51.346;12.372;2023-06-14T00:37:50;4.60;;;1.63;;
36373;SDS011;22399;51.346;12.372;2023-06-14T00:40:21;3.55;;;1.52;;
36373;SDS011;22399;51.346;12.372;2023-06-14T00:42:50;7.97;;;1.73;;
36373;SDS011;22399;51.346;12.372;2023-06-14T00:45:18;3.05;;;1.58;;
36373;SDS011;22399;51.346;12.372;2023-06-14T00:47:47;5.72;;;1.50;;
36373;SDS011;22399;51.346;12.372;2023-06-14T00:50:19;7.65;;;1.65;;
36373;SDS011;22399;51.346;12.372;2023-06-14T00:52:51;2.17;;;1.33;;
36373;SDS011;22399;51.346;12.372;2023-06-14T00:55:19;1.60;;;1.20;;
36373;SDS011;22399;51.346;12.372;2023-06-14T00:57:48;2.63;;;1.50;;
36373;SDS011;22399;51.346;12.372;2023-06-14T01:00:18;2.42;;;1.52;;
36373;SDS011;22399;51.346;12.372;2023-06-14T01:02:46;4.43;;;1.77;;
36373;SDS011;22399;51.346;12.372;2023-06-14T01:05:16;4.63;;;1.63;;
36373;SDS011;22399;51.346;12.372;2023-06-14T01:07:49;2.10;;;1.30;;
36373;SDS011;22399;51.346;12.372;2023-06-14T01:10:35;6.82;;;2.13;;
36373;SDS011;22399;51.346;12.372;2023-06-14T01:13:15;2.33;;;1.40;;
36373;SDS011;22399;51.346;12.372;2023-06-14T01:15:48;1.80;;;1.30;;
36373;SDS011;22399;51.346;12.372;2023-06-14T01:18:20;4.70;;;1.73;;
36373;SDS011;22399;51.346;12.372;2023-06-14T01:20:50;6.97;;;1.50;;
36373;SDS011;22399;51.346;12.372;2023-06-14T01:23:25;2.67;;;1.80;;
36373;SDS011;22399;51.346;12.372;2023-06-14T01:25:59;1.70;;;1.27;;
36373;SDS011;22399;51.346;12.372;2023-06-14T01:28:31;4.45;;;1.70;;
36373;SDS011;22399;51.346;12.372;2023-06-14T01:31:01;5.15;;;2.10;;
36373;SDS011;22399;51.346;12.372;2023-06-14T01:33:32;11.57;;;1.67;;
36373;SDS011;22399;51.346;12.372;2023-06-14T01:36:02;4.93;;;1.83;;
36373;SDS011;22399;51.346;12.372;2023-06-14T01:38:36;5.60;;;2.08;;
36373;SDS011;22399;51.346;12.372;2023-06-14T01:41:06;3.10;;;1.70;;
36373;SDS011;22399;51.346;12.372;2023-06-14T01:43:35;4.68;;;2.05;;
36373;SDS011;22399;51.346;12.372;2023-06-14T01:46:04;4.88;;;1.08;;
36373;SDS011;22399;51.346;12.372;2023-06-14T01:48:34;2.75;;;1.60;;
36373;SDS011;22399;51.346;12.372;2023-06-14T01:51:03;1.90;;;1.25;;
36373;SDS011;22399;51.346;12.372;2023-06-14T01:53:31;3.85;;;2.10;;
36373;SDS011;22399;51.346;12.372;2023-06-14T01:56:01;8.57;;;1.60;;
36373;SDS011;22399;51.346;12.372;2023-06-14T01:58:30;5.63;;;1.88;;
36373;SDS011;22399;51.346;12.372;2023-06-14T02:01:00;6.05;;;2.00;;
36373;SDS011;22399;51.346;12.372;2023-06-14T02:03:28;4.22;;;1.88;;
36373;SDS011;22399;51.346;12.372;2023-06-14T02:05:58;4.80;;;2.00;;
36373;SDS011;22399;51.346;12.372;2023-06-14T02:08:26;5.65;;;1.63;;
36373;SDS011;22399;51.346;12.372;2023-06-14T02:10:55;3.75;;;1.45;;
36373;SDS011;22399;51.346;12.372;2023-06-14T02:13:25;8.02;;;1.60;;
36373;SDS011;22399;51.346;12.372;2023-06-14T02:15:54;4.78;;;1.27;;
36373;SDS011;22399;51.346;12.372;2023-06-14T02:18:22;3.42;;;1.30;;
36373;SDS011;22399;51.346;12.372;2023-06-14T02:20:51;10.18;;;2.28;;
36373;SDS011;22399;51.346;12.372;2023-06-14T02:23:19;8.52;;;2.08;;
36373;SDS011;22399;51.346;12.372;2023-06-14T02:25:48;4.25;;;1.42;;
36373;SDS011;22399;51.346;12.372;2023-06-14T02:28:16;3.13;;;1.52;;
36373;SDS011;22399;51.346;12.372;2023-06-14T02:30:46;5.85;;;1.92;;
36373;SDS011;22399;51.346;12.372;2023-06-14T02:33:15;2.80;;;1.48;;
36373;SDS011;22399;51.346;12.372;2023-06-14T02:35:44;9.40;;;2.08;;
36373;SDS011;22399;51.346;12.372;2023-06-14T02:38:14;3.03;;;1.85;;
36373;SDS011;22399;51.346;12.372;2023-06-14T02:40:43;8.65;;;1.85;;
36373;SDS011;22399;51.346;12.372;2023-06-14T02:43:11;3.80;;;1.67;;
36373;SDS011;22399;51.346;12.372;2023-06-14T02:45:40;5.07;;;1.52;;
36373;SDS011;22399;51.346;12.372;2023-06-14T02:48:10;2.95;;;1.77;;
36373;SDS011;22399;51.346;12.372;2023-06-14T02:50:39;3.00;;;1.90;;
36373;SDS011;22399;51.346;12.372;2023-06-14T02:53:08;17.88;;;1.83;;
36373;SDS011;22399;51.346;12.372;2023-06-14T02:55:37;2.42;;;1.55;;
36373;SDS011;22399;51.346;12.372;2023-06-14T02:58:07;11.52;;;1.55;;
36373;SDS011;22399;51.346;12.372;2023-06-14T03:00:36;7.03;;;1.45;;
36373;SDS011;22399;51.346;12.372;2023-06-14T03:03:05;12.13;;;1.60;;
36373;SDS011;22399;51.346;12.372;2023-06-14T03:05:43;2.35;;;1.38;;
36373;SDS011;22399;51.346;12.372;2023-06-14T03:08:16;5.38;;;1.60;;
36373;SDS011;22399;51.346;12.372;2023-06-14T03:10:50;5.78;;;1.48;;
36373;SDS011;22399;51.346;12.372;2023-06-14T03:13:19;2.80;;;1.10;;
36373;SDS011;22399;51.346;12.372;2023-06-14T03:15:50;4.20;;;1.63;;
36373;SDS011;22399;51.346;12.372;2023-06-14T03:18:21;2.75;;;1.52;;
36373;SDS011;22399;51.346;12.372;2023-06-14T03:20:54;6.53;;;1.70;;
36373;SDS011;22399;51.346;12.372;2023-06-14T03:23:26;5.80;;;1.60;;
36373;SDS011;22399;51.346;12.372;2023-06-14T03:25:56;5.30;;;2.03;;
36373;SDS011;22399;51.346;12.372;2023-06-14T03:28:25;3.20;;;1.63;;
36373;SDS011;22399;51.346;12.372;2023-06-14T03:30:56;5.90;;;1.73;;
36373;SDS011;22399;51.346;12.372;2023-06-14T03:33:25;3.33;;;2.30;;
36373;SDS011;22399;51.346;12.372;2023-06-14T03:35:56;2.95;;;1.75;;
36373;SDS011;22399;51.346;12.372;2023-06-14T03:38:26;5.95;;;1.45;;
36373;SDS011;22399;51.346;12.372;2023-06-14T03:40:55;3.70;;;1.70;;
36373;SDS011;22399;51.346;12.372;2023-06-14T03:43:24;6.68;;;2.38;;
36373;SDS011;22399;51.346;12.372;2023-06-14T03:45:53;1.63;;;1.45;;
36373;SDS011;22399;51.346;12.372;2023-06-14T03:48:23;4.90;;;1.58;;
36373;SDS011;22399;51.346;12.372;2023-06-14T03:50:52;10.82;;;1.88;;
36373;SDS011;22399;51.346;12.372;2023-06-14T03:53:27;5.28;;;1.52;;
36373;SDS011;22399;51.346;12.372;2023-06-14T03:55:57;8.32;;;2.67;;
36373;SDS011;22399;51.346;12.372;2023-06-14T03:58:36;4.32;;;1.48;;
36373;SDS011;22399;51.346;12.372;2023-06-14T04:01:05;6.78;;;1.83;;
36373;SDS011;22399;51.346;12.372;2023-06-14T04:03:34;3.58;;;1.30;;
36373;SDS011;22399;51.346;12.372;2023-06-14T04:06:03;3.28;;;1.70;;
36373;SDS011;22399;51.346;12.372;2023-06-14T04:08:34;4.40;;;1.83;;
36373;SDS011;22399;51.346;12.372;2023-06-14T04:11:06;2.78;;;1.50;;
36373;SDS011;22399;51.346;12.372;2023-06-14T04:13:35;3.50;;;1.88;;
36373;SDS011;22399;51.346;12.372;2023-06-14T04:16:05;8.05;;;1.92;;
36373;SDS011;22399;51.346;12.372;2023-06-14T04:18:35;7.25;;;1.90;;
36373;SDS011;22399;51.346;12.372;2023-06-14T04:21:03;9.52;;;1.60;;
36373;SDS011;22399;51.346;12.372;2023-06-14T04:23:35;5.82;;;1.63;;
36373;SDS011;22399;51.346;12.372;2023-06-14T04:26:04;7.55;;;2.05;;
36373;SDS011;22399;51.346;12.372;2023-06-14T04:28:33;3.60;;;1.83;;
36373;SDS011;22399;51.346;12.372;2023-06-14T04:31:08;3.63;;;1.98;;
36373;SDS011;22399;51.346;12.372;2023-06-14T04:33:38;4.60;;;1.80;;
36373;SDS011;22399;51.346;12.372;2023-06-14T04:36:14;7.07;;;1.85;;
36373;SDS011;22399;51.346;12.372;2023-06-14T04:38:48;2.80;;;1.83;;
36373;SDS011;22399;51.346;12.372;2023-06-14T04:41:23;4.28;;;1.80;;
36373;SDS011;22399;51.346;12.372;2023-06-14T04:43:59;4.68;;;1.85;;
36373;SDS011;22399;51.346;12.372;2023-06-14T04:46:33;4.53;;;2.25;;
36373;SDS011;22399;51.346;12.372;2023-06-14T04:49:20;2.05;;;1.17;;
36373;SDS011;22399;51.346;12.372;2023-06-14T04:51:53;6.30;;;2.15;;
36373;SDS011;22399;51.346;12.372;2023-06-14T04:54:27;11.98;;;2.35;;
36373;SDS011;22399;51.346;12.372;2023-06-14T04:56:58;3.55;;;1.95;;
36373;SDS011;22399;51.346;12.372;2023-06-14T04:59:27;4.95;;;2.20;;
36373;SDS011;22399;51.346;12.372;2023-06-14T05:02:00;5.18;;;1.90;;
36373;SDS011;22399;51.346;12.372;2023-06-14T05:04:29;6.18;;;1.98;;
36373;SDS011;22399;51.346;12.372;2023-06-14T05:06:58;4.97;;;2.13;;
36373;SDS011;22399;51.346;12.372;2023-06-14T05:09:29;4.55;;;2.10;;
36373;SDS011;22399;51.346;12.372;2023-06-14T05:11:59;6.35;;;1.58;;
36373;SDS011;22399;51.346;12.372;2023-06-14T05:14:28;2.47;;;1.52;;
36373;SDS011;22399;51.346;12.372;2023-06-14T05:16:57;6.55;;;2.25;;
36373;SDS011;22399;51.346;12.372;2023-06-14T05:19:26;6.13;;;2.33;;
36373;SDS011;22399;51.346;12.372;2023-06-14T05:21:54;3.97;;;2.05;;
36373;SDS011;22399;51.346;12.372;2023-06-14T05:24:23;11.60;;;2.40;;
36373;SDS011;22399;51.346;12.372;2023-06-14T05:26:53;4.57;;;1.92;;
36373;SDS011;22399;51.346;12.372;2023-06-14T05:29:22;5.38;;;2.33;;
36373;SDS011;22399;51.346;12.372;2023-06-14T05:31:50;6.22;;;2.22;;
36373;SDS011;22399;51.346;12.372;2023-06-14T05:34:18;5.25;;;2.40;;
36373;SDS011;22399;51.346;12.372;2023-06-14T05:36:47;4.00;;;2.28;;
36373;SDS011;22399;51.346;12.372;2023-06-14T05:39:15;5.13;;;2.38;;
36373;SDS011;22399;51.346;12.372;2023-06-14T05:41:44;6.15;;;2.22;;
36373;SDS011;22399;51.346;12.372;2023-06-14T05:44:17;10.57;;;2.22;;
36373;SDS011;22399;51.346;12.372;2023-06-14T05:46:45;6.05;;;2.28;;
36373;SDS011;22399;51.346;12.372;2023-06-14T05:49:14;9.20;;;2.45;;
36373;SDS011;22399;51.346;12.372;2023-06-14T05:51:43;4.85;;;2.45;;
36373;SDS011;22399;51.346;12.372;2023-06-14T05:54:11;4.88;;;2.55;;
36373;SDS011;22399;51.346;12.372;2023-06-14T05:56:40;9.73;;;2.35;;
36373;SDS011;22399;51.346;12.372;2023-06-14T05:59:08;5.93;;;2.88;;
36373;SDS011;22399;51.346;12.372;2023-06-14T06:01:38;4.43;;;2.30;;
36373;SDS011;22399;51.346;12.372;2023-06-14T06:04:07;8.60;;;2.53;;
36373;SDS011;22399;51.346;12.372;2023-06-14T06:06:36;5.32;;;2.47;;
36373;SDS011;22399;51.346;12.372;2023-06-14T06:09:05;4.38;;;2.30;;
36373;SDS011;22399;51.346;12.372;2023-06-14T06:11:33;3.53;;;1.90;;
36373;SDS011;22399;51.346;12.372;2023-06-14T06:14:18;7.88;;;2.58;;
36373;SDS011;22399;51.346;12.372;2023-06-14T06:16:48;3.95;;;1.98;;
36373;SDS011;22399;51.346;12.372;2023-06-14T06:19:17;6.90;;;2.22;;
36373;SDS011;22399;51.346;12.372;2023-06-14T06:21:45;5.00;;;2.40;;
36373;SDS011;22399;51.346;12.372;2023-06-14T06:24:14;6.30;;;2.83;;
36373;SDS011;22399;51.346;12.372;2023-06-14T06:26:42;15.07;;;2.63;;
36373;SDS011;22399;51.346;12.372;2023-06-14T06:29:11;3.28;;;2.03;;
36373;SDS011;22399;51.346;12.372;2023-06-14T06:31:41;4.65;;;2.45;;
36373;SDS011;22399;51.346;12.372;2023-06-14T06:34:11;5.10;;;2.08;;
36373;SDS011;22399;51.346;12.372;2023-06-14T06:36:40;5.38;;;2.47;;
36373;SDS011;22399;51.346;12.372;2023-06-14T06:39:09;4.80;;;2.35;;
36373;SDS011;22399;51.346;12.372;2023-06-14T06:41:38;11.23;;;3.50;;
36373;SDS011;22399;51.346;12.372;2023-06-14T06:44:07;6.07;;;2.60;;
36373;SDS011;22399;51.346;12.372;2023-06-14T06:46:38;3.08;;;2.13;;
36373;SDS011;22399;51.346;12.372;2023-06-14T06:49:08;4.32;;;1.85;;
36373;SDS011;22399;51.346;12.372;2023-06-14T06:51:42;3.20;;;2.00;;
36373;SDS011;22399;51.346;12.372;2023-06-14T06:54:11;4.43;;;2.55;;
36373;SDS011;22399;51.346;12.372;2023-06-14T06:56:39;5.60;;;2.85;;
36373;SDS011;22399;51.346;12.372;2023-06-14T06:59:08;5.72;;;2.05;;
36373;SDS011;22399;51.346;12.372;2023-06-14T07:01:37;4.78;;;2.25;;
36373;SDS011;22399;51.346;12.372;2023-06-14T07:04:05;5.82;;;2.35;;
36373;SDS011;22399;51.346;12.372;2023-06-14T07:06:34;4.75;;;2.33;;
36373;SDS011;22399;51.346;12.372;2023-06-14T07:09:03;4.55;;;2.67;;
36373;SDS011;22399;51.346;12.372;2023-06-14T07:11:35;3.25;;;2.00;;
36373;SDS011;22399;51.346;12.372;2023-06-14T07:14:03;5.10;;;2.20;;
36373;SDS011;22399;51.346;12.372;2023-06-14T07:16:32;2.92;;;1.85;;
36373;SDS011;22399;51.346;12.372;2023-06-14T07:19:01;8.10;;;1.90;;
36373;SDS011;22399;51.346;12.372;2023-06-14T07:21:30;4.97;;;2.25;;
36373;SDS011;22399;51.346;12.372;2023-06-14T07:23:58;3.67;;;1.50;;
36373;SDS011;22399;51.346;12.372;2023-06-14T07:26:28;5.68;;;1.92;;
36373;SDS011;22399;51.346;12.372;2023-06-14T07:28:57;2.83;;;1.67;;
36373;SDS011;22399;51.346;12.372;2023-06-14T07:31:26;5.93;;;2.10;;
36373;SDS011;22399;51.346;12.372;2023-06-14T07:33:54;3.10;;;1.77;;
36373;SDS011;22399;51.346;12.372;2023-06-14T07:36:23;3.22;;;1.83;;
36373;SDS011;22399;51.346;12.372;2023-06-14T07:38:51;1.65;;;1.20;;
36373;SDS011;22399;51.346;12.372;2023-06-14T07:41:20;5.07;;;2.22;;
36373;SDS011;22399;51.346;12.372;2023-06-14T07:43:50;7.60;;;2.03;;
36373;SDS011;22399;51.346;12.372;2023-06-14T07:46:19;2.85;;;2.00;;
36373;SDS011;22399;51.346;12.372;2023-06-14T07:48:48;4.78;;;2.03;;
36373;SDS011;22399;51.346;12.372;2023-06-14T07:51:17;3.33;;;1.60;;
36373;SDS011;22399;51.346;12.372;2023-06-14T07:53:45;4.28;;;2.22;;
36373;SDS011;22399;51.346;12.372;2023-06-14T07:56:14;4.63;;;1.73;;
36373;SDS011;22399;51.346;12.372;2023-06-14T07:58:42;7.93;;;2.13;;
36373;SDS011;22399;51.346;12.372;2023-06-14T08:01:12;9.05;;;2.05;;
36373;SDS011;22399;51.346;12.372;2023-06-14T08:03:42;4.20;;;1.90;;
36373;SDS011;22399;51.346;12.372;2023-06-14T08:06:10;3.72;;;2.08;;
36373;SDS011;22399;51.346;12.372;2023-06-14T08:08:39;8.15;;;1.75;;
36373;SDS011;22399;51.346;12.372;2023-06-14T08:11:08;2.13;;;1.70;;
36373;SDS011;22399;51.346;12.372;2023-06-14T08:13:36;3.45;;;1.77;;
36373;SDS011;22399;51.346;12.372;2023-06-14T08:16:04;9.50;;;1.75;;
36373;SDS011;22399;51.346;12.372;2023-06-14T08:18:34;3.15;;;1.70;;
36373;SDS011;22399;51.346;12.372;2023-06-14T08:21:02;2.42;;;1.58;;
36373;SDS011;22399;51.346;12.372;2023-06-14T08:23:31;2.53;;;1.67;;
36373;SDS011;22399;51.346;12.372;2023-06-14T08:25:59;7.10;;;1.70;;
36373;SDS011;22399;51.346;12.372;2023-06-14T08:28:28;4.20;;;1.48;;
36373;SDS011;22399;51.346;12.372;2023-06-14T08:30:57;8.80;;;1.75;;
36373;SDS011;22399;51.346;12.372;2023-06-14T08:33:25;4.50;;;1.40;;
36373;SDS011;22399;51.346;12.372;2023-06-14T08:35:55;5.57;;;1.85;;
36373;SDS011;22399;51.346;12.372;2023-06-14T08:38:23;2.88;;;1.83;;
36373;SDS011;22399;51.346;12.372;2023-06-14T08:40:52;2.85;;;1.58;;
36373;SDS011;22399;51.346;12.372;2023-06-14T08:43:25;10.23;;;1.75;;
36373;SDS011;22399;51.346;12.372;2023-06-14T08:45:54;7.82;;;1.75;;
36373;SDS011;22399;51.346;12.372;2023-06-14T08:48:28;4.85;;;1.90;;
36373;SDS011;22399;51.346;12.372;2023-06-14T08:51:00;3.40;;;1.80;;
36373;SDS011;22399;51.346;12.372;2023-06-14T08:53:31;5.35;;;1.88;;
36373;SDS011;22399;51.346;12.372;2023-06-14T08:56:04;6.28;;;1.60;;
36373;SDS011;22399;51.346;12.372;2023-06-14T08:58:34;5.22;;;1.70;;
36373;SDS011;22399;51.346;12.372;2023-06-14T09:01:07;2.30;;;1.42;;
36373;SDS011;22399;51.346;12.372;2023-06-14T09:03:39;4.75;;;1.65;;
36373;SDS011;22399;51.346;12.372;2023-06-14T09:06:09;2.83;;;1.63;;
36373;SDS011;22399;51.346;12.372;2023-06-14T09:08:44;7.18;;;1.45;;
36373;SDS011;22399;51.346;12.372;2023-06-14T09:11:14;4.93;;;1.73;;
36373;SDS011;22399;51.346;12.372;2023-06-14T09:13:45;2.42;;;1.45;;
36373;SDS011;22399;51.346;12.372;2023-06-14T09:16:14;3.28;;;1.40;;
36373;SDS011;22399;51.346;12.372;2023-06-14T09:18:44;1.73;;;1.27;;
36373;SDS011;22399;51.346;12.372;2023-06-14T09:21:16;3.10;;;1.65;;
36373;SDS011;22399;51.346;12.372;2023-06-14T09:23:46;9.60;;;1.83;;
36373;SDS011;22399;51.346;12.372;2023-06-14T09:26:15;3.70;;;1.80;;
36373;SDS011;22399;51.346;12.372;2023-06-14T09:28:46;4.88;;;1.27;;
36373;SDS011;22399;51.346;12.372;2023-06-14T09:31:16;3.60;;;1.50;;
36373;SDS011;22399;51.346;12.372;2023-06-14T09:33:46;5.50;;;1.30;;
36373;SDS011;22399;51.346;12.372;2023-06-14T09:36:18;3.67;;;1.33;;
36373;SDS011;22399;51.346;12.372;2023-06-14T09:38:52;3.38;;;1.50;;
36373;SDS011;22399;51.346;12.372;2023-06-14T09:41:21;5.97;;;1.45;;
36373;SDS011;22399;51.346;12.372;2023-06-14T09:44:00;2.72;;;1.40;;
36373;SDS011;22399;51.346;12.372;2023-06-14T09:46:35;3.05;;;1.55;;
36373;SDS011;22399;51.346;12.372;2023-06-14T09:49:04;2.83;;;1.50;;
36373;SDS011;22399;51.346;12.372;2023-06-14T09:51:35;3.28;;;1.40;;
36373;SDS011;22399;51.346;12.372;2023-06-14T09:54:11;2.40;;;1.30;;
36373;SDS011;22399;51.346;12.372;2023-06-14T09:56:44;4.57;;;1.38;;
36373;SDS011;22399;51.346;12.372;2023-06-14T09:59:14;2.63;;;1.73;;
36373;SDS011;22399;51.346;12.372;2023-06-14T10:01:47;6.50;;;1.20;;
36373;SDS011;22399;51.346;12.372;2023-06-14T10:04:18;4.80;;;0.98;;
36373;SDS011;22399;51.346;12.372;2023-06-14T10:06:51;4.82;;;1.63;;
36373;SDS011;22399;51.346;12.372;2023-06-14T10:09:21;10.23;;;1.60;;
36373;SDS011;22399;51.346;12.372;2023-06-14T10:11:50;9.68;;;1.55;;
36373;SDS011;22399;51.346;12.372;2023-06-14T10:14:18;5.30;;;1.65;;
36373;SDS011;22399;51.346;12.372;2023-06-14T10:16:49;6.05;;;1.25;;
36373;SDS011;22399;51.346;12.372;2023-06-14T10:19:37;4.07;;;1.38;;
36373;SDS011;22399;51.346;12.372;2023-06-14T10:22:12;2.17;;;1.63;;
36373;SDS011;22399;51.346;12.372;2023-06-14T10:24:46;5.53;;;1.88;;
36373;SDS011;22399;51.346;12.372;2023-06-14T10:27:16;2.90;;;1.58;;
36373;SDS011;22399;51.346;12.372;2023-06-14T10:30:03;6.40;;;2.22;;
36373;SDS011;22399;51.346;12.372;2023-06-14T10:32:34;5.97;;;1.42;;
36373;SDS011;22399;51.346;12.372;2023-06-14T10:35:04;10.85;;;1.50;;
36373;SDS011;22399;51.346;12.372;2023-06-14T10:37:35;1.85;;;1.23;;
36373;SDS011;22399;51.346;12.372;2023-06-14T10:40:03;7.25;;;1.33;;
36373;SDS011;22399;51.346;12.372;2023-06-14T10:42:35;2.67;;;1.10;;
36373;SDS011;22399;51.346;12.372;2023-06-14T10:45:04;2.03;;;1.08;;
36373;SDS011;22399;51.346;12.372;2023-06-14T10:47:33;2.53;;;1.05;;
36373;SDS011;22399;51.346;12.372;2023-06-14T10:50:05;3.42;;;1.35;;
36373;SDS011;22399;51.346;12.372;2023-06-14T10:52:37;5.28;;;1.15;;
36373;SDS011;22399;51.346;12.372;2023-06-14T10:55:12;2.90;;;1.27;;
36373;SDS011;22399;51.346;12.372;2023-06-14T10:57:43;4.88;;;1.45;;
36373;SDS011;22399;51.346;12.372;2023-06-14T11:00:19;2.83;;;1.30;;
36373;SDS011;22399;51.346;12.372;2023-06-14T11:06:11;5.35;;;1.20;;
36373;SDS011;22399;51.346;12.372;2023-06-14T11:08:51;2.65;;;1.10;;
36373;SDS011;22399;51.346;12.372;2023-06-14T11:11:38;1.85;;;0.98;;
36373;SDS011;22399;51.346;12.372;2023-06-14T11:14:10;6.90;;;1.33;;
36373;SDS011;22399;51.346;12.372;2023-06-14T11:16:39;3.22;;;1.27;;
36373;SDS011;22399;51.346;12.372;2023-06-14T11:19:07;2.42;;;1.08;;
36373;SDS011;22399;51.346;12.372;2023-06-14T11:21:39;2.08;;;1.15;;
36373;SDS011;22399;51.346;12.372;2023-06-14T11:24:11;2.20;;;1.20;;
36373;SDS011;22399;51.346;12.372;2023-06-14T11:26:40;6.05;;;1.60;;
36373;SDS011;22399;51.346;12.372;2023-06-14T11:29:08;2.20;;;1.33;;
36373;SDS011;22399;51.346;12.372;2023-06-14T11:31:37;2.60;;;1.20;;
36373;SDS011;22399;51.346;12.372;2023-06-14T11:34:05;6.00;;;1.55;;
36373;SDS011;22399;51.346;12.372;2023-06-14T11:36:34;2.38;;;1.40;;
36373;SDS011;22399;51.346;12.372;2023-06-14T11:39:03;2.47;;;1.30;;
36373;SDS011;22399;51.346;12.372;2023-06-14T11:41:36;2.47;;;1.13;;
36373;SDS011;22399;51.346;12.372;2023-06-14T11:44:05;1.90;;;1.23;;
36373;SDS011;22399;51.346;12.372;2023-06-14T11:46:35;3.47;;;1.60;;
36373;SDS011;22399;51.346;12.372;2023-06-14T11:49:03;1.98;;;1.10;;
36373;SDS011;22399;51.346;12.372;2023-06-14T11:51:34;5.32;;;1.10;;
36373;SDS011;22399;51.346;12.372;2023-06-14T11:54:03;3.35;;;1.10;;
36373;SDS011;22399;51.346;12.372;2023-06-14T11:56:36;7.85;;;1.10;;
36373;SDS011;22399;51.346;12.372;2023-06-14T11:59:05;7.78;;;1.42;;
36373;SDS011;22399;51.346;12.372;2023-06-14T12:01:37;5.35;;;1.02;;
36373;SDS011;22399;51.346;12.372;2023-06-14T12:04:06;6.22;;;1.13;;
36373;SDS011;22399;51.346;12.372;2023-06-14T12:06:35;3.50;;;0.98;;
36373;SDS011;22399;51.346;12.372;2023-06-14T12:09:07;2.33;;;1.23;;
36373;SDS011;22399;51.346;12.372;2023-06-14T12:11:42;2.97;;;1.25;;
36373;SDS011;22399;51.346;12.372;2023-06-14T12:14:10;3.35;;;1.63;;
36373;SDS011;22399;51.346;12.372;2023-06-14T12:16:39;2.08;;;1.38;;
36373;SDS011;22399;51.346;12.372;2023-06-14T12:19:09;2.38;;;1.10;;
36373;SDS011;22399;51.346;12.372;2023-06-14T12:21:40;2.15;;;1.20;;
36373;SDS011;22399;51.346;12.372;2023-06-14T12:24:09;2.85;;;1.60;;
36373;SDS011;22399;51.346;12.372;2023-06-14T12:26:42;2.58;;;1.13;;
36373;SDS011;22399;51.346;12.372;2023-06-14T12:29:12;3.38;;;1.52;;
36373;SDS011;22399;51.346;12.372;2023-06-14T12:31:40;3.58;;;1.20;;
36373;SDS011;22399;51.346;12.372;2023-06-14T12:34:09;2.25;;;1.27;;
36373;SDS011;22399;51.346;12.372;2023-06-14T12:36:38;2.28;;;1.42;;
36373;SDS011;22399;51.346;12.372;2023-06-14T12:39:11;1.92;;;1.13;;
36373;SDS011;22399;51.346;12.372;2023-06-14T12:41:41;2.60;;;1.33;;
36373;SDS011;22399;51.346;12.372;2023-06-14T12:44:10;7.75;;;1.73;;
36373;SDS011;22399;51.346;12.372;2023-06-14T12:46:39;3.03;;;1.45;;
36373;SDS011;22399;51.346;12.372;2023-06-14T12:49:08;6.25;;;1.35;;
36373;SDS011;22399;51.346;12.372;2023-06-14T12:51:38;7.95;;;1.50;;
36373;SDS011;22399;51.346;12.372;2023-06-14T12:54:08;2.70;;;1.33;;
36373;SDS011;22399;51.346;12.372;2023-06-14T12:56:36;3.00;;;1.13;;
36373;SDS011;22399;51.346;12.372;2023-06-14T12:59:07;8.80;;;1.67;;
36373;SDS011;22399;51.346;12.372;2023-06-14T13:01:37;4.10;;;1.50;;
36373;SDS011;22399;51.346;12.372;2023-06-14T13:04:06;3.80;;;1.27;;
36373;SDS011;22399;51.346;12.372;2023-06-14T13:06:34;2.05;;;1.30;;
36373;SDS011;22399;51.346;12.372;2023-06-14T13:09:04;5.47;;;1.65;;
36373;SDS011;22399;51.346;12.372;2023-06-14T13:11:35;4.07;;;1.98;;
36373;SDS011;22399;51.346;12.372;2023-06-14T13:14:04;5.53;;;1.70;;
36373;SDS011;22399;51.346;12.372;2023-06-14T13:16:39;3.28;;;1.60;;
36373;SDS011;22399;51.346;12.372;2023-06-14T13:19:08;3.22;;;1.55;;
36373;SDS011;22399;51.346;12.372;2023-06-14T13:21:37;11.57;;;1.60;;
36373;SDS011;22399;51.346;12.372;2023-06-14T13:24:05;4.63;;;1.58;;
36373;SDS011;22399;51.346;12.372;2023-06-14T13:26:34;3.55;;;1.90;;
36373;SDS011;22399;51.346;12.372;2023-06-14T13:29:03;4.00;;;1.70;;
36373;SDS011;22399;51.346;12.372;2023-06-14T13:31:33;7.05;;;1.90;;
36373;SDS011;22399;51.346;12.372;2023-06-14T13:34:01;4.78;;;1.80;;
36373;SDS011;22399;51.346;12.372;2023-06-14T13:36:31;8.57;;;1.67;;
36373;SDS011;22399;51.346;12.372;2023-06-14T13:39:00;2.67;;;1.35;;
36373;SDS011;22399;51.346;12.372;2023-06-14T13:41:28;3.50;;;1.58;;
36373;SDS011;22399;51.346;12.372;2023-06-14T13:44:00;6.38;;;1.85;;
36373;SDS011;22399;51.346;12.372;2023-06-14T13:46:30;3.10;;;1.55;;
36373;SDS011;22399;51.346;12.372;2023-06-14T13:49:01;9.88;;;1.83;;
36373;SDS011;22399;51.346;12.372;2023-06-14T13:51:32;2.83;;;1.20;;
36373;SDS011;22399;51.346;12.372;2023-06-14T13:54:01;15.55;;;2.03;;
36373;SDS011;22399;51.346;12.372;2023-06-14T13:56:30;3.25;;;1.85;;
36373;SDS011;22399;51.346;12.372;2023-06-14T13:58:58;2.92;;;1.80;;
36373;SDS011;22399;51.346;12.372;2023-06-14T14:01:27;4.50;;;1.92;;
36373;SDS011;22399;51.346;12.372;2023-06-14T14:03:57;3.10;;;1.40;;
36373;SDS011;22399;51.346;12.372;2023-06-14T14:06:27;2.00;;;1.30;;
36373;SDS011;22399;51.346;12.372;2023-06-14T14:08:55;4.65;;;2.10;;
36373;SDS011;22399;51.346;12.372;2023-06-14T14:11:24;12.20;;;1.95;;
36373;SDS011;22399;51.346;12.372;2023-06-14T14:13:52;2.60;;;1.70;;
36373;SDS011;22399;51.346;12.372;2023-06-14T14:16:21;4.65;;;1.50;;
36373;SDS011;22399;51.346;12.372;2023-06-14T14:18:50;8.73;;;2.22;;
36373;SDS011;22399;51.346;12.372;2023-06-14T14:21:19;3.70;;;1.60;;
36373;SDS011;22399;51.346;12.372;2023-06-14T14:23:48;2.35;;;1.40;;
36373;SDS011;22399;51.346;12.372;2023-06-14T14:26:17;3.70;;;1.35;;
36373;SDS011;22399;51.346;12.372;2023-06-14T14:28:45;3.35;;;1.70;;
36373;SDS011;22399;51.346;12.372;2023-06-14T14:31:14;12.02;;;1.60;;
36373;SDS011;22399;51.346;12.372;2023-06-14T14:33:42;5.70;;;1.45;;
36373;SDS011;22399;51.346;12.372;2023-06-14T14:36:11;4.50;;;1.92;;
36373;SDS011;22399;51.346;12.372;2023-06-14T14:38:41;2.97;;;1.60;;
36373;SDS011;22399;51.346;12.372;2023-06-14T14:41:10;2.58;;;1.50;;
36373;SDS011;22399;51.346;12.372;2023-06-14T14:43:39;2.95;;;1.55;;
36373;SDS011;22399;51.346;12.372;2023-06-14T14:46:07;4.40;;;1.48;;
36373;SDS011;22399;51.346;12.372;2023-06-14T14:48:36;5.95;;;1.67;;
36373;SDS011;22399;51.346;12.372;2023-06-14T14:51:04;15.15;;;1.73;;
36373;SDS011;22399;51.346;12.372;2023-06-14T14:53:33;3.40;;;1.65;;